sensor_id;sensor_type;location;lat;lon;timestamp;P1;durP1;ratioP1;P2;durP2;ratioP2
47894;SDS011;33653;52.302;8.134;2022-09-12T00:01:40;4.07;;;2.80;;
47894;SDS011;33653;52.302;8.134;2022-09-12T00:04:08;4.75;;;3.00;;
47894;SDS011;33653;52.302;8.134;2022-09-12T00:06:38;2.90;;;2.35;;
47894;SDS011;33653;52.302;8.134;2022-09-12T00:09:07;4.00;;;2.90;;
47894;SDS011;33653;52.302;8.134;2022-09-12T00:11:39;3.88;;;2.92;;
47894;SDS011;33653;52.302;8.134;2022-09-12T00:14:14;5.55;;;3.17;;
47894;SDS011;33653;52.302;8.134;2022-09-12T00:16:44;3.25;;;2.63;;
47894;SDS011;33653;52.302;8.134;2022-09-12T00:19:13;5.20;;;2.72;;
47894;SDS011;33653;52.302;8.134;2022-09-12T00:21:41;3.40;;;2.53;;
47894;SDS011;33653;52.302;8.134;2022-09-12T00:24:09;5.45;;;2.60;;
47894;SDS011;33653;52.302;8.134;2022-09-12T00:26:37;3.83;;;2.38;;
47894;SDS011;33653;52.302;8.134;2022-09-12T00:29:06;3.20;;;2.30;;
47894;SDS011;33653;52.302;8.134;2022-09-12T00:31:34;6.38;;;2.60;;
47894;SDS011;33653;52.302;8.134;2022-09-12T00:34:02;2.53;;;2.03;;
47894;SDS011;33653;52.302;8.134;2022-09-12T00:36:31;3.10;;;2.58;;
47894;SDS011;33653;52.302;8.134;2022-09-12T00:38:59;3.55;;;2.20;;
47894;SDS011;33653;52.302;8.134;2022-09-12T00:41:29;2.83;;;2.22;;
47894;SDS011;33653;52.302;8.134;2022-09-12T00:46:49;3.17;;;2.22;;
47894;SDS011;33653;52.302;8.134;2022-09-12T00:52:43;2.20;;;1.67;;
47894;SDS011;33653;52.302;8.134;2022-09-12T00:55:20;3.13;;;2.72;;
47894;SDS011;33653;52.302;8.134;2022-09-12T00:58:09;3.83;;;2.40;;
47894;SDS011;33653;52.302;8.134;2022-09-12T01:00:47;4.73;;;2.37;;
47894;SDS011;33653;52.302;8.134;2022-09-12T01:03:16;2.42;;;2.17;;
47894;SDS011;33653;52.302;8.134;2022-09-12T01:06:36;3.60;;;2.47;;
47894;SDS011;33653;52.302;8.134;2022-09-12T01:08:47;2.60;;;2.40;;
47894;SDS011;33653;52.302;8.134;2022-09-12T01:11:17;3.17;;;2.70;;
47894;SDS011;33653;52.302;8.134;2022-09-12T01:13:47;4.22;;;2.70;;
47894;SDS011;33653;52.302;8.134;2022-09-12T01:16:17;3.75;;;2.53;;
47894;SDS011;33653;52.302;8.134;2022-09-12T01:21:44;2.58;;;2.13;;
47894;SDS011;33653;52.302;8.134;2022-09-12T01:24:52;3.10;;;2.47;;
47894;SDS011;33653;52.302;8.134;2022-09-12T01:28:35;2.92;;;2.33;;
47894;SDS011;33653;52.302;8.134;2022-09-12T01:37:18;2.60;;;2.03;;
47894;SDS011;33653;52.302;8.134;2022-09-12T01:45:45;2.83;;;2.17;;
47894;SDS011;33653;52.302;8.134;2022-09-12T01:48:43;3.45;;;2.85;;
47894;SDS011;33653;52.302;8.134;2022-09-12T01:51:25;2.85;;;2.17;;
47894;SDS011;33653;52.302;8.134;2022-09-12T01:54:40;2.60;;;2.40;;
47894;SDS011;33653;52.302;8.134;2022-09-12T01:57:09;2.93;;;2.17;;
47894;SDS011;33653;52.302;8.134;2022-09-12T01:59:56;2.60;;;2.05;;
47894;SDS011;33653;52.302;8.134;2022-09-12T02:02:40;2.60;;;1.73;;
47894;SDS011;33653;52.302;8.134;2022-09-12T02:05:31;3.63;;;2.00;;
47894;SDS011;33653;52.302;8.134;2022-09-12T02:08:08;2.45;;;1.92;;
47894;SDS011;33653;52.302;8.134;2022-09-12T02:11:00;3.33;;;2.17;;
47894;SDS011;33653;52.302;8.134;2022-09-12T02:13:36;2.58;;;2.10;;
47894;SDS011;33653;52.302;8.134;2022-09-12T02:16:17;3.08;;;2.67;;
47894;SDS011;33653;52.302;8.134;2022-09-12T02:19:11;3.10;;;2.35;;
47894;SDS011;33653;52.302;8.134;2022-09-12T02:21:53;3.13;;;2.60;;
47894;SDS011;33653;52.302;8.134;2022-09-12T02:24:41;3.75;;;2.65;;
47894;SDS011;33653;52.302;8.134;2022-09-12T02:27:19;3.65;;;2.67;;
47894;SDS011;33653;52.302;8.134;2022-09-12T02:29:56;3.33;;;2.13;;
47894;SDS011;33653;52.302;8.134;2022-09-12T02:32:27;3.10;;;2.40;;
47894;SDS011;33653;52.302;8.134;2022-09-12T02:35:35;3.42;;;2.63;;
47894;SDS011;33653;52.302;8.134;2022-09-12T02:38:36;4.03;;;2.45;;
47894;SDS011;33653;52.302;8.134;2022-09-12T02:41:14;4.03;;;2.75;;
47894;SDS011;33653;52.302;8.134;2022-09-12T02:43:46;3.35;;;2.10;;
47894;SDS011;33653;52.302;8.134;2022-09-12T02:46:17;3.00;;;2.05;;
47894;SDS011;33653;52.302;8.134;2022-09-12T02:48:52;2.72;;;2.40;;
47894;SDS011;33653;52.302;8.134;2022-09-12T02:51:21;2.08;;;1.70;;
47894;SDS011;33653;52.302;8.134;2022-09-12T02:53:50;2.53;;;2.00;;
47894;SDS011;33653;52.302;8.134;2022-09-12T02:56:22;3.80;;;2.67;;
47894;SDS011;33653;52.302;8.134;2022-09-12T02:58:58;2.50;;;2.03;;
47894;SDS011;33653;52.302;8.134;2022-09-12T03:20:00;3.22;;;2.20;;
47894;SDS011;33653;52.302;8.134;2022-09-12T03:23:47;2.85;;;2.40;;
47894;SDS011;33653;52.302;8.134;2022-09-12T03:26:09;3.33;;;1.88;;
47894;SDS011;33653;52.302;8.134;2022-09-12T03:28:43;5.32;;;2.58;;
47894;SDS011;33653;52.302;8.134;2022-09-12T03:31:14;3.47;;;2.25;;
47894;SDS011;33653;52.302;8.134;2022-09-12T03:33:45;5.22;;;3.05;;
47894;SDS011;33653;52.302;8.134;2022-09-12T03:36:21;2.97;;;2.40;;
47894;SDS011;33653;52.302;8.134;2022-09-12T03:38:53;2.13;;;1.92;;
47894;SDS011;33653;52.302;8.134;2022-09-12T03:41:21;6.32;;;2.08;;
47894;SDS011;33653;52.302;8.134;2022-09-12T03:43:50;3.63;;;2.25;;
47894;SDS011;33653;52.302;8.134;2022-09-12T03:46:18;2.42;;;2.00;;
47894;SDS011;33653;52.302;8.134;2022-09-12T03:48:46;2.55;;;2.03;;
47894;SDS011;33653;52.302;8.134;2022-09-12T03:51:14;2.67;;;2.47;;
47894;SDS011;33653;52.302;8.134;2022-09-12T03:53:42;2.95;;;2.20;;
47894;SDS011;33653;52.302;8.134;2022-09-12T03:56:11;3.78;;;2.63;;
47894;SDS011;33653;52.302;8.134;2022-09-12T03:58:39;5.13;;;3.03;;
47894;SDS011;33653;52.302;8.134;2022-09-12T04:01:09;3.92;;;2.55;;
47894;SDS011;33653;52.302;8.134;2022-09-12T04:03:43;3.78;;;2.47;;
47894;SDS011;33653;52.302;8.134;2022-09-12T04:06:15;3.13;;;2.45;;
47894;SDS011;33653;52.302;8.134;2022-09-12T04:08:48;4.38;;;3.00;;
47894;SDS011;33653;52.302;8.134;2022-09-12T04:11:19;3.58;;;2.30;;
47894;SDS011;33653;52.302;8.134;2022-09-12T04:13:49;3.83;;;2.60;;
47894;SDS011;33653;52.302;8.134;2022-09-12T04:16:18;2.75;;;2.10;;
47894;SDS011;33653;52.302;8.134;2022-09-12T04:18:47;2.88;;;2.13;;
47894;SDS011;33653;52.302;8.134;2022-09-12T04:21:16;2.72;;;2.30;;
47894;SDS011;33653;52.302;8.134;2022-09-12T04:23:47;5.07;;;2.92;;
47894;SDS011;33653;52.302;8.134;2022-09-12T04:26:17;3.33;;;2.53;;
47894;SDS011;33653;52.302;8.134;2022-09-12T04:28:46;3.63;;;2.80;;
47894;SDS011;33653;52.302;8.134;2022-09-12T04:31:19;3.17;;;1.73;;
47894;SDS011;33653;52.302;8.134;2022-09-12T04:33:55;2.83;;;2.20;;
47894;SDS011;33653;52.302;8.134;2022-09-12T04:36:27;3.65;;;2.60;;
47894;SDS011;33653;52.302;8.134;2022-09-12T04:38:56;4.85;;;3.42;;
47894;SDS011;33653;52.302;8.134;2022-09-12T04:41:25;3.60;;;2.70;;
47894;SDS011;33653;52.302;8.134;2022-09-12T04:44:02;4.38;;;2.50;;
47894;SDS011;33653;52.302;8.134;2022-09-12T04:46:37;4.20;;;2.85;;
47894;SDS011;33653;52.302;8.134;2022-09-12T04:49:10;5.68;;;2.90;;
47894;SDS011;33653;52.302;8.134;2022-09-12T04:51:40;6.05;;;2.60;;
47894;SDS011;33653;52.302;8.134;2022-09-12T04:54:11;4.30;;;2.53;;
47894;SDS011;33653;52.302;8.134;2022-09-12T04:56:44;3.47;;;2.78;;
47894;SDS011;33653;52.302;8.134;2022-09-12T04:59:15;5.47;;;2.72;;
47894;SDS011;33653;52.302;8.134;2022-09-12T05:04:14;3.95;;;2.80;;
47894;SDS011;33653;52.302;8.134;2022-09-12T05:06:42;3.78;;;2.50;;
47894;SDS011;33653;52.302;8.134;2022-09-12T05:09:13;5.18;;;3.25;;
47894;SDS011;33653;52.302;8.134;2022-09-12T05:11:42;6.03;;;3.25;;
47894;SDS011;33653;52.302;8.134;2022-09-12T05:14:32;6.72;;;3.60;;
47894;SDS011;33653;52.302;8.134;2022-09-12T05:17:00;5.40;;;3.08;;
47894;SDS011;33653;52.302;8.134;2022-09-12T05:19:30;4.20;;;2.63;;
47894;SDS011;33653;52.302;8.134;2022-09-12T05:22:00;6.35;;;3.70;;
47894;SDS011;33653;52.302;8.134;2022-09-12T05:24:28;5.25;;;3.45;;
47894;SDS011;33653;52.302;8.134;2022-09-12T05:26:56;5.50;;;3.72;;
47894;SDS011;33653;52.302;8.134;2022-09-12T05:29:25;6.70;;;4.20;;
47894;SDS011;33653;52.302;8.134;2022-09-12T05:31:53;9.05;;;4.13;;
47894;SDS011;33653;52.302;8.134;2022-09-12T05:34:21;8.00;;;4.65;;
47894;SDS011;33653;52.302;8.134;2022-09-12T05:36:50;7.05;;;4.78;;
47894;SDS011;33653;52.302;8.134;2022-09-12T05:39:18;7.38;;;4.60;;
47894;SDS011;33653;52.302;8.134;2022-09-12T05:41:46;6.70;;;3.97;;
47894;SDS011;33653;52.302;8.134;2022-09-12T05:44:14;8.43;;;3.72;;
47894;SDS011;33653;52.302;8.134;2022-09-12T05:46:43;7.10;;;3.70;;
47894;SDS011;33653;52.302;8.134;2022-09-12T05:49:16;5.15;;;3.22;;
47894;SDS011;33653;52.302;8.134;2022-09-12T05:51:44;6.50;;;3.83;;
47894;SDS011;33653;52.302;8.134;2022-09-12T05:54:14;5.88;;;3.80;;
47894;SDS011;33653;52.302;8.134;2022-09-12T05:56:45;9.18;;;4.85;;
47894;SDS011;33653;52.302;8.134;2022-09-12T05:59:16;8.50;;;4.40;;
47894;SDS011;33653;52.302;8.134;2022-09-12T06:01:47;7.63;;;4.38;;
47894;SDS011;33653;52.302;8.134;2022-09-12T06:04:16;10.35;;;5.20;;
47894;SDS011;33653;52.302;8.134;2022-09-12T06:06:44;7.78;;;4.68;;
47894;SDS011;33653;52.302;8.134;2022-09-12T06:09:13;10.13;;;5.93;;
47894;SDS011;33653;52.302;8.134;2022-09-12T06:11:44;9.48;;;4.82;;
47894;SDS011;33653;52.302;8.134;2022-09-12T06:14:14;7.95;;;5.00;;
47894;SDS011;33653;52.302;8.134;2022-09-12T06:16:43;14.82;;;5.20;;
47894;SDS011;33653;52.302;8.134;2022-09-12T06:19:17;8.27;;;5.13;;
47894;SDS011;33653;52.302;8.134;2022-09-12T06:21:48;11.85;;;6.68;;
47894;SDS011;33653;52.302;8.134;2022-09-12T06:24:17;12.52;;;6.20;;
47894;SDS011;33653;52.302;8.134;2022-09-12T06:26:47;14.43;;;6.10;;
47894;SDS011;33653;52.302;8.134;2022-09-12T06:29:18;13.18;;;5.97;;
47894;SDS011;33653;52.302;8.134;2022-09-12T06:31:46;14.00;;;5.32;;
47894;SDS011;33653;52.302;8.134;2022-09-12T06:34:15;11.35;;;5.95;;
47894;SDS011;33653;52.302;8.134;2022-09-12T06:36:44;13.38;;;5.55;;
47894;SDS011;33653;52.302;8.134;2022-09-12T06:39:15;11.73;;;6.22;;
47894;SDS011;33653;52.302;8.134;2022-09-12T06:41:47;12.85;;;6.75;;
47894;SDS011;33653;52.302;8.134;2022-09-12T06:44:18;12.90;;;6.70;;
47894;SDS011;33653;52.302;8.134;2022-09-12T06:46:48;9.65;;;5.60;;
47894;SDS011;33653;52.302;8.134;2022-09-12T06:49:16;9.88;;;5.57;;
47894;SDS011;33653;52.302;8.134;2022-09-12T06:51:45;12.88;;;6.05;;
47894;SDS011;33653;52.302;8.134;2022-09-12T06:54:13;15.02;;;7.30;;
47894;SDS011;33653;52.302;8.134;2022-09-12T06:56:43;10.07;;;5.95;;
47894;SDS011;33653;52.302;8.134;2022-09-12T06:59:11;13.20;;;6.50;;
47894;SDS011;33653;52.302;8.134;2022-09-12T07:01:40;11.90;;;6.70;;
47894;SDS011;33653;52.302;8.134;2022-09-12T07:04:08;16.83;;;6.70;;
47894;SDS011;33653;52.302;8.134;2022-09-12T07:06:38;13.15;;;6.68;;
47894;SDS011;33653;52.302;8.134;2022-09-12T07:09:09;10.35;;;6.10;;
47894;SDS011;33653;52.302;8.134;2022-09-12T07:11:43;10.77;;;6.63;;
47894;SDS011;33653;52.302;8.134;2022-09-12T07:14:12;11.77;;;6.15;;
47894;SDS011;33653;52.302;8.134;2022-09-12T07:16:41;11.48;;;6.13;;
47894;SDS011;33653;52.302;8.134;2022-09-12T07:19:09;8.38;;;5.00;;
47894;SDS011;33653;52.302;8.134;2022-09-12T07:24:08;9.13;;;5.63;;
47894;SDS011;33653;52.302;8.134;2022-09-12T07:26:38;9.05;;;5.25;;
47894;SDS011;33653;52.302;8.134;2022-09-12T07:29:11;10.45;;;5.22;;
47894;SDS011;33653;52.302;8.134;2022-09-12T07:32:02;15.82;;;6.65;;
47894;SDS011;33653;52.302;8.134;2022-09-12T07:34:32;14.93;;;6.47;;
47894;SDS011;33653;52.302;8.134;2022-09-12T07:37:01;10.70;;;5.85;;
47894;SDS011;33653;52.302;8.134;2022-09-12T07:39:30;11.90;;;5.50;;
47894;SDS011;33653;52.302;8.134;2022-09-12T07:41:59;11.25;;;5.95;;
47894;SDS011;33653;52.302;8.134;2022-09-12T07:44:27;8.68;;;5.30;;
47894;SDS011;33653;52.302;8.134;2022-09-12T07:46:56;8.55;;;4.85;;
47894;SDS011;33653;52.302;8.134;2022-09-12T07:49:24;10.43;;;5.45;;
47894;SDS011;33653;52.302;8.134;2022-09-12T07:51:53;7.93;;;4.70;;
47894;SDS011;33653;52.302;8.134;2022-09-12T07:54:22;8.97;;;4.67;;
47894;SDS011;33653;52.302;8.134;2022-09-12T07:56:50;6.10;;;4.22;;
47894;SDS011;33653;52.302;8.134;2022-09-12T07:59:19;7.93;;;4.88;;
47894;SDS011;33653;52.302;8.134;2022-09-12T08:02:10;8.60;;;5.05;;
47894;SDS011;33653;52.302;8.134;2022-09-12T08:04:43;7.63;;;3.80;;
47894;SDS011;33653;52.302;8.134;2022-09-12T08:07:14;8.98;;;5.00;;
47894;SDS011;33653;52.302;8.134;2022-09-12T08:09:44;7.53;;;4.20;;
47894;SDS011;33653;52.302;8.134;2022-09-12T08:12:12;7.68;;;4.00;;
47894;SDS011;33653;52.302;8.134;2022-09-12T08:14:43;7.90;;;4.80;;
47894;SDS011;33653;52.302;8.134;2022-09-12T08:17:11;6.65;;;4.32;;
47894;SDS011;33653;52.302;8.134;2022-09-12T08:19:40;7.50;;;4.15;;
47894;SDS011;33653;52.302;8.134;2022-09-12T08:22:08;12.82;;;4.93;;
47894;SDS011;33653;52.302;8.134;2022-09-12T08:24:37;7.78;;;4.03;;
47894;SDS011;33653;52.302;8.134;2022-09-12T08:27:05;5.57;;;3.92;;
47894;SDS011;33653;52.302;8.134;2022-09-12T08:29:34;4.68;;;3.35;;
47894;SDS011;33653;52.302;8.134;2022-09-12T08:32:02;8.52;;;4.10;;
47894;SDS011;33653;52.302;8.134;2022-09-12T08:34:31;5.60;;;3.53;;
47894;SDS011;33653;52.302;8.134;2022-09-12T08:37:02;5.20;;;3.90;;
47894;SDS011;33653;52.302;8.134;2022-09-12T08:39:30;5.28;;;3.22;;
47894;SDS011;33653;52.302;8.134;2022-09-12T08:42:03;5.97;;;3.60;;
47894;SDS011;33653;52.302;8.134;2022-09-12T08:52:51;6.88;;;3.83;;
47894;SDS011;33653;52.302;8.134;2022-09-12T08:55:32;9.35;;;4.07;;
47894;SDS011;33653;52.302;8.134;2022-09-12T08:58:21;7.40;;;3.65;;
47894;SDS011;33653;52.302;8.134;2022-09-12T09:04:00;4.80;;;3.42;;
47894;SDS011;33653;52.302;8.134;2022-09-12T09:10:33;9.73;;;3.45;;
47894;SDS011;33653;52.302;8.134;2022-09-12T09:20:34;6.20;;;3.80;;
47894;SDS011;33653;52.302;8.134;2022-09-12T09:23:13;8.45;;;4.03;;
47894;SDS011;33653;52.302;8.134;2022-09-12T09:26:05;5.78;;;4.30;;
47894;SDS011;33653;52.302;8.134;2022-09-12T09:31:47;6.32;;;4.18;;
47894;SDS011;33653;52.302;8.134;2022-09-12T09:34:22;8.23;;;4.82;;
47894;SDS011;33653;52.302;8.134;2022-09-12T09:36:59;7.85;;;4.55;;
47894;SDS011;33653;52.302;8.134;2022-09-12T09:42:59;6.20;;;4.18;;
47894;SDS011;33653;52.302;8.134;2022-09-12T09:45:39;6.03;;;4.05;;
47894;SDS011;33653;52.302;8.134;2022-09-12T09:48:17;7.95;;;4.20;;
47894;SDS011;33653;52.302;8.134;2022-09-12T09:50:49;7.35;;;4.28;;
47894;SDS011;33653;52.302;8.134;2022-09-12T09:59:19;5.57;;;3.80;;
47894;SDS011;33653;52.302;8.134;2022-09-12T10:01:55;8.43;;;3.97;;
47894;SDS011;33653;52.302;8.134;2022-09-12T10:04:57;6.88;;;4.13;;
47894;SDS011;33653;52.302;8.134;2022-09-12T10:07:25;8.93;;;4.82;;
47894;SDS011;33653;52.302;8.134;2022-09-12T10:10:05;7.50;;;4.90;;
47894;SDS011;33653;52.302;8.134;2022-09-12T10:12:44;6.05;;;3.97;;
47894;SDS011;33653;52.302;8.134;2022-09-12T10:15:23;6.95;;;4.15;;
47894;SDS011;33653;52.302;8.134;2022-09-12T10:17:52;4.68;;;2.85;;
47894;SDS011;33653;52.302;8.134;2022-09-12T10:20:36;7.93;;;3.78;;
47894;SDS011;33653;52.302;8.134;2022-09-12T10:25:58;6.80;;;3.78;;
47894;SDS011;33653;52.302;8.134;2022-09-12T10:28:37;5.40;;;3.40;;
47894;SDS011;33653;52.302;8.134;2022-09-12T10:31:28;7.90;;;4.05;;
47894;SDS011;33653;52.302;8.134;2022-09-12T10:34:18;7.22;;;4.32;;
47894;SDS011;33653;52.302;8.134;2022-09-12T10:40:07;5.70;;;3.60;;
47894;SDS011;33653;52.302;8.134;2022-09-12T10:42:53;7.65;;;4.57;;
47894;SDS011;33653;52.302;8.134;2022-09-12T10:45:29;8.63;;;4.05;;
47894;SDS011;33653;52.302;8.134;2022-09-12T10:48:03;7.53;;;3.92;;
47894;SDS011;33653;52.302;8.134;2022-09-12T10:50:58;9.82;;;4.75;;
47894;SDS011;33653;52.302;8.134;2022-09-12T10:53:28;5.72;;;3.78;;
47894;SDS011;33653;52.302;8.134;2022-09-12T11:01:59;5.60;;;3.90;;
47894;SDS011;33653;52.302;8.134;2022-09-12T11:04:52;7.38;;;4.05;;
47894;SDS011;33653;52.302;8.134;2022-09-12T11:08:08;4.47;;;2.97;;
47894;SDS011;33653;52.302;8.134;2022-09-12T11:17:39;5.43;;;3.25;;
47894;SDS011;33653;52.302;8.134;2022-09-12T11:35:32;5.88;;;3.50;;
47894;SDS011;33653;52.302;8.134;2022-09-12T11:41:36;6.78;;;4.15;;
47894;SDS011;33653;52.302;8.134;2022-09-12T11:44:11;9.32;;;3.80;;
47894;SDS011;33653;52.302;8.134;2022-09-12T11:46:47;5.70;;;3.30;;
47894;SDS011;33653;52.302;8.134;2022-09-12T11:49:30;5.10;;;3.28;;
47894;SDS011;33653;52.302;8.134;2022-09-12T11:52:19;9.48;;;4.57;;
47894;SDS011;33653;52.302;8.134;2022-09-12T11:54:55;6.03;;;3.90;;
47894;SDS011;33653;52.302;8.134;2022-09-12T11:57:48;5.30;;;3.42;;
47894;SDS011;33653;52.302;8.134;2022-09-12T12:00:32;5.70;;;3.45;;
47894;SDS011;33653;52.302;8.134;2022-09-12T12:03:53;5.38;;;3.45;;
47894;SDS011;33653;52.302;8.134;2022-09-12T12:09:32;5.38;;;2.88;;
47894;SDS011;33653;52.302;8.134;2022-09-12T12:12:02;5.55;;;3.47;;
47894;SDS011;33653;52.302;8.134;2022-09-12T12:14:43;6.80;;;3.10;;
47894;SDS011;33653;52.302;8.134;2022-09-12T12:17:15;5.85;;;3.15;;
47894;SDS011;33653;52.302;8.134;2022-09-12T12:19:55;3.35;;;2.35;;
47894;SDS011;33653;52.302;8.134;2022-09-12T12:22:33;5.45;;;2.97;;
47894;SDS011;33653;52.302;8.134;2022-09-12T12:25:03;4.13;;;2.53;;
47894;SDS011;33653;52.302;8.134;2022-09-12T12:27:57;5.03;;;2.85;;
47894;SDS011;33653;52.302;8.134;2022-09-12T12:30:57;2.97;;;2.22;;
47894;SDS011;33653;52.302;8.134;2022-09-12T12:38:27;3.53;;;2.30;;
47894;SDS011;33653;52.302;8.134;2022-09-12T12:43:45;4.25;;;2.67;;
47894;SDS011;33653;52.302;8.134;2022-09-12T12:46:22;6.60;;;2.85;;
47894;SDS011;33653;52.302;8.134;2022-09-12T12:49:02;4.25;;;2.83;;
47894;SDS011;33653;52.302;8.134;2022-09-12T12:51:54;3.90;;;2.40;;
47894;SDS011;33653;52.302;8.134;2022-09-12T12:57:25;3.80;;;2.28;;
47894;SDS011;33653;52.302;8.134;2022-09-12T13:00:21;3.70;;;2.38;;
47894;SDS011;33653;52.302;8.134;2022-09-12T13:05:59;4.07;;;2.58;;
47894;SDS011;33653;52.302;8.134;2022-09-12T13:11:56;3.08;;;2.05;;
47894;SDS011;33653;52.302;8.134;2022-09-12T13:20:25;2.83;;;1.90;;
47894;SDS011;33653;52.302;8.134;2022-09-12T13:22:59;2.72;;;1.88;;
47894;SDS011;33653;52.302;8.134;2022-09-12T13:25:34;2.10;;;1.67;;
47894;SDS011;33653;52.302;8.134;2022-09-12T13:28:15;3.35;;;2.10;;
47894;SDS011;33653;52.302;8.134;2022-09-12T13:30:53;3.75;;;2.15;;
47894;SDS011;33653;52.302;8.134;2022-09-12T13:33:49;2.38;;;1.65;;
47894;SDS011;33653;52.302;8.134;2022-09-12T13:39:45;3.00;;;2.50;;
47894;SDS011;33653;52.302;8.134;2022-09-12T13:42:38;5.13;;;2.20;;
47894;SDS011;33653;52.302;8.134;2022-09-12T13:45:23;3.97;;;2.53;;
47894;SDS011;33653;52.302;8.134;2022-09-12T13:47:56;3.85;;;2.22;;
47894;SDS011;33653;52.302;8.134;2022-09-12T13:50:32;3.58;;;2.03;;
47894;SDS011;33653;52.302;8.134;2022-09-12T13:53:13;5.60;;;3.20;;
47894;SDS011;33653;52.302;8.134;2022-09-12T13:55:57;4.32;;;2.53;;
47894;SDS011;33653;52.302;8.134;2022-09-12T14:03:32;3.50;;;2.42;;
47894;SDS011;33653;52.302;8.134;2022-09-12T14:06:26;3.83;;;2.38;;
47894;SDS011;33653;52.302;8.134;2022-09-12T14:08:55;3.30;;;2.40;;
47894;SDS011;33653;52.302;8.134;2022-09-12T14:11:26;4.32;;;2.90;;
47894;SDS011;33653;52.302;8.134;2022-09-12T14:14:00;4.25;;;2.67;;
47894;SDS011;33653;52.302;8.134;2022-09-12T14:16:36;3.30;;;2.03;;
47894;SDS011;33653;52.302;8.134;2022-09-12T14:19:07;4.32;;;2.42;;
47894;SDS011;33653;52.302;8.134;2022-09-12T14:21:38;3.42;;;2.25;;
47894;SDS011;33653;52.302;8.134;2022-09-12T14:24:08;2.50;;;1.85;;
47894;SDS011;33653;52.302;8.134;2022-09-12T14:26:38;3.35;;;2.45;;
47894;SDS011;33653;52.302;8.134;2022-09-12T14:29:11;2.35;;;1.85;;
47894;SDS011;33653;52.302;8.134;2022-09-12T14:31:46;5.50;;;2.05;;
47894;SDS011;33653;52.302;8.134;2022-09-12T14:34:17;3.28;;;1.73;;
47894;SDS011;33653;52.302;8.134;2022-09-12T14:36:46;2.78;;;1.90;;
47894;SDS011;33653;52.302;8.134;2022-09-12T14:39:27;1.65;;;1.52;;
47894;SDS011;33653;52.302;8.134;2022-09-12T14:42:10;3.42;;;1.70;;
47894;SDS011;33653;52.302;8.134;2022-09-12T14:44:52;3.08;;;2.17;;
47894;SDS011;33653;52.302;8.134;2022-09-12T14:47:30;2.72;;;2.08;;
47894;SDS011;33653;52.302;8.134;2022-09-12T14:50:14;2.97;;;1.98;;
47894;SDS011;33653;52.302;8.134;2022-09-12T14:53:02;2.97;;;2.10;;
47894;SDS011;33653;52.302;8.134;2022-09-12T14:58:48;2.67;;;1.90;;
47894;SDS011;33653;52.302;8.134;2022-09-12T15:09:13;2.30;;;1.88;;
47894;SDS011;33653;52.302;8.134;2022-09-12T15:11:41;4.20;;;1.65;;
47894;SDS011;33653;52.302;8.134;2022-09-12T15:14:13;1.50;;;1.40;;
47894;SDS011;33653;52.302;8.134;2022-09-12T15:16:41;2.78;;;1.63;;
47894;SDS011;33653;52.302;8.134;2022-09-12T15:19:10;4.25;;;1.80;;
47894;SDS011;33653;52.302;8.134;2022-09-12T15:21:38;2.38;;;1.70;;
47894;SDS011;33653;52.302;8.134;2022-09-12T15:24:06;2.20;;;1.75;;
47894;SDS011;33653;52.302;8.134;2022-09-12T15:26:35;2.30;;;1.63;;
47894;SDS011;33653;52.302;8.134;2022-09-12T15:29:03;2.70;;;1.67;;
47894;SDS011;33653;52.302;8.134;2022-09-12T15:31:31;2.40;;;1.52;;
47894;SDS011;33653;52.302;8.134;2022-09-12T15:34:00;2.65;;;1.95;;
47894;SDS011;33653;52.302;8.134;2022-09-12T15:36:29;2.30;;;1.90;;
47894;SDS011;33653;52.302;8.134;2022-09-12T15:38:57;2.20;;;1.80;;
47894;SDS011;33653;52.302;8.134;2022-09-12T15:41:27;2.05;;;1.77;;
47894;SDS011;33653;52.302;8.134;2022-09-12T15:44:03;2.00;;;1.55;;
47894;SDS011;33653;52.302;8.134;2022-09-12T15:46:33;1.95;;;1.40;;
47894;SDS011;33653;52.302;8.134;2022-09-12T15:49:02;2.60;;;1.83;;
47894;SDS011;33653;52.302;8.134;2022-09-12T15:51:30;2.22;;;1.75;;
47894;SDS011;33653;52.302;8.134;2022-09-12T15:53:59;3.35;;;1.95;;
47894;SDS011;33653;52.302;8.134;2022-09-12T15:56:30;2.63;;;1.77;;
47894;SDS011;33653;52.302;8.134;2022-09-12T15:58:58;2.65;;;1.90;;
47894;SDS011;33653;52.302;8.134;2022-09-12T16:01:27;2.42;;;1.70;;
47894;SDS011;33653;52.302;8.134;2022-09-12T16:03:55;4.05;;;1.67;;
47894;SDS011;33653;52.302;8.134;2022-09-12T16:06:24;3.60;;;1.92;;
47894;SDS011;33653;52.302;8.134;2022-09-12T16:08:53;5.88;;;2.00;;
47894;SDS011;33653;52.302;8.134;2022-09-12T16:11:23;3.33;;;1.70;;
47894;SDS011;33653;52.302;8.134;2022-09-12T16:13:53;4.97;;;2.00;;
47894;SDS011;33653;52.302;8.134;2022-09-12T16:16:32;2.47;;;1.67;;
47894;SDS011;33653;52.302;8.134;2022-09-12T16:19:01;1.95;;;1.75;;
47894;SDS011;33653;52.302;8.134;2022-09-12T16:21:30;2.58;;;1.77;;
47894;SDS011;33653;52.302;8.134;2022-09-12T16:23:58;1.90;;;1.48;;
47894;SDS011;33653;52.302;8.134;2022-09-12T16:26:26;2.60;;;1.92;;
47894;SDS011;33653;52.302;8.134;2022-09-12T16:28:58;2.47;;;1.75;;
47894;SDS011;33653;52.302;8.134;2022-09-12T16:31:26;2.72;;;1.90;;
47894;SDS011;33653;52.302;8.134;2022-09-12T16:33:55;2.47;;;1.80;;
47894;SDS011;33653;52.302;8.134;2022-09-12T16:36:25;2.40;;;1.77;;
47894;SDS011;33653;52.302;8.134;2022-09-12T16:38:54;3.38;;;2.00;;
47894;SDS011;33653;52.302;8.134;2022-09-12T16:41:22;2.92;;;2.30;;
47894;SDS011;33653;52.302;8.134;2022-09-12T16:43:51;2.78;;;1.90;;
47894;SDS011;33653;52.302;8.134;2022-09-12T16:46:21;2.22;;;1.90;;
47894;SDS011;33653;52.302;8.134;2022-09-12T16:48:56;3.00;;;2.00;;
47894;SDS011;33653;52.302;8.134;2022-09-12T16:51:26;1.90;;;1.70;;
47894;SDS011;33653;52.302;8.134;2022-09-12T16:53:59;3.25;;;1.92;;
47894;SDS011;33653;52.302;8.134;2022-09-12T16:56:27;2.35;;;1.63;;
47894;SDS011;33653;52.302;8.134;2022-09-12T16:58:56;1.83;;;1.50;;
47894;SDS011;33653;52.302;8.134;2022-09-12T17:01:24;2.22;;;1.55;;
47894;SDS011;33653;52.302;8.134;2022-09-12T17:03:54;3.03;;;1.98;;
47894;SDS011;33653;52.302;8.134;2022-09-12T17:06:24;3.08;;;1.85;;
47894;SDS011;33653;52.302;8.134;2022-09-12T17:08:54;3.80;;;2.05;;
47894;SDS011;33653;52.302;8.134;2022-09-12T17:11:31;2.17;;;1.63;;
47894;SDS011;33653;52.302;8.134;2022-09-12T17:14:06;1.83;;;1.35;;
47894;SDS011;33653;52.302;8.134;2022-09-12T17:19:37;1.75;;;1.63;;
47894;SDS011;33653;52.302;8.134;2022-09-12T17:22:06;2.40;;;1.33;;
47894;SDS011;33653;52.302;8.134;2022-09-12T17:24:34;3.60;;;1.92;;
47894;SDS011;33653;52.302;8.134;2022-09-12T17:27:02;1.98;;;1.70;;
47894;SDS011;33653;52.302;8.134;2022-09-12T17:29:30;1.70;;;1.42;;
47894;SDS011;33653;52.302;8.134;2022-09-12T17:32:01;2.75;;;1.60;;
47894;SDS011;33653;52.302;8.134;2022-09-12T17:34:29;2.45;;;1.70;;
47894;SDS011;33653;52.302;8.134;2022-09-12T17:36:57;3.58;;;1.90;;
47894;SDS011;33653;52.302;8.134;2022-09-12T17:39:26;2.30;;;1.65;;
47894;SDS011;33653;52.302;8.134;2022-09-12T17:41:54;3.72;;;1.75;;
47894;SDS011;33653;52.302;8.134;2022-09-12T17:44:23;1.95;;;1.58;;
47894;SDS011;33653;52.302;8.134;2022-09-12T17:46:51;2.45;;;1.70;;
47894;SDS011;33653;52.302;8.134;2022-09-12T17:49:25;2.50;;;1.90;;
47894;SDS011;33653;52.302;8.134;2022-09-12T17:51:54;2.47;;;1.77;;
47894;SDS011;33653;52.302;8.134;2022-09-12T17:54:22;3.47;;;1.75;;
47894;SDS011;33653;52.302;8.134;2022-09-12T17:56:50;6.55;;;2.47;;
47894;SDS011;33653;52.302;8.134;2022-09-12T17:59:19;5.53;;;2.08;;
47894;SDS011;33653;52.302;8.134;2022-09-12T18:01:50;3.17;;;1.70;;
47894;SDS011;33653;52.302;8.134;2022-09-12T18:04:37;2.67;;;2.08;;
47894;SDS011;33653;52.302;8.134;2022-09-12T18:07:07;5.07;;;2.20;;
47894;SDS011;33653;52.302;8.134;2022-09-12T18:09:35;3.95;;;1.80;;
47894;SDS011;33653;52.302;8.134;2022-09-12T18:12:04;3.45;;;2.15;;
47894;SDS011;33653;52.302;8.134;2022-09-12T18:14:33;3.00;;;1.98;;